sensor_id;sensor_type;location;lat;lon;timestamp;noise_LAeq;noise_LA_min;noise_LA_max;noise_LA01;noise_LA95
66463;Laerm;56827;52.178;4.500;2024-01-16T00:14:27;39.37;33.65;46.62;;
66463;Laerm;56827;52.178;4.500;2024-01-16T00:14:37;39.71;36.27;44.81;;
66463;Laerm;56827;52.178;4.500;2024-01-16T00:14:48;47.93;34.72;63.96;;
66463;Laerm;56827;52.178;4.500;2024-01-16T00:14:58;41.21;35.71;53.92;;
66463;Laerm;56827;52.178;4.500;2024-01-16T00:15:08;36.81;34.74;41.26;;
66463;Laerm;56827;52.178;4.500;2024-01-16T00:15:19;38.03;35.56;42.03;;
66463;Laerm;56827;52.178;4.500;2024-01-16T00:15:29;37.55;34.05;41.90;;
66463;Laerm;56827;52.178;4.500;2024-01-16T00:15:39;38.23;35.00;48.66;;
66463;Laerm;56827;52.178;4.500;2024-01-16T00:15:51;35.14;32.58;40.54;;
66463;Laerm;56827;52.178;4.500;2024-01-16T00:16:02;35.41;32.52;40.99;;
66463;Laerm;56827;52.178;4.500;2024-01-16T00:16:13;34.11;31.38;45.81;;
66463;Laerm;56827;52.178;4.500;2024-01-16T00:16:23;34.20;30.92;39.62;;
66463;Laerm;56827;52.178;4.500;2024-01-16T00:16:34;33.21;30.69;39.67;;
66463;Laerm;56827;52.178;4.500;2024-01-16T00:16:47;33.49;30.21;40.11;;
66463;Laerm;56827;52.178;4.500;2024-01-16T00:16:57;32.85;30.03;39.92;;
66463;Laerm;56827;52.178;4.500;2024-01-16T00:17:08;32.91;30.28;40.20;;
66463;Laerm;56827;52.178;4.500;2024-01-16T00:17:18;33.00;30.69;40.27;;
66463;Laerm;56827;52.178;4.500;2024-01-16T00:17:29;33.40;31.18;39.19;;
66463;Laerm;56827;52.178;4.500;2024-01-16T00:17:39;33.97;31.40;39.63;;
66463;Laerm;56827;52.178;4.500;2024-01-16T00:17:49;54.04;35.48;72.26;;
66463;Laerm;56827;52.178;4.500;2024-01-16T00:17:59;61.43;41.76;77.48;;
66463;Laerm;56827;52.178;4.500;2024-01-16T00:18:10;43.88;37.66;55.90;;
66463;Laerm;56827;52.178;4.500;2024-01-16T00:18:20;39.94;36.86;43.03;;
66463;Laerm;56827;52.178;4.500;2024-01-16T00:18:30;39.79;35.76;50.33;;
66463;Laerm;56827;52.178;4.500;2024-01-16T00:18:40;42.38;36.71;47.29;;
66463;Laerm;56827;52.178;4.500;2024-01-16T00:18:51;61.86;44.34;75.39;;
66463;Laerm;56827;52.178;4.500;2024-01-16T00:19:01;43.19;37.49;57.62;;
66463;Laerm;56827;52.178;4.500;2024-01-16T00:19:11;54.57;43.59;71.04;;
66463;Laerm;56827;52.178;4.500;2024-01-16T00:19:22;44.64;37.40;53.80;;
66463;Laerm;56827;52.178;4.500;2024-01-16T00:19:32;44.01;36.28;53.72;;
66463;Laerm;56827;52.178;4.500;2024-01-16T00:19:42;45.13;35.06;55.59;;
66463;Laerm;56827;52.178;4.500;2024-01-16T00:19:52;42.53;34.22;54.86;;
66463;Laerm;56827;52.178;4.500;2024-01-16T00:20:03;41.18;34.07;49.33;;
66463;Laerm;56827;52.178;4.500;2024-01-16T00:20:15;39.78;32.50;48.39;;
66463;Laerm;56827;52.178;4.500;2024-01-16T00:20:25;39.29;33.82;48.51;;
66463;Laerm;56827;52.178;4.500;2024-01-16T00:20:35;42.98;35.25;47.62;;
66463;Laerm;56827;52.178;4.500;2024-01-16T00:20:46;42.61;32.68;60.72;;
66463;Laerm;56827;52.178;4.500;2024-01-16T00:20:56;33.88;31.76;38.72;;
66463;Laerm;56827;52.178;4.500;2024-01-16T00:21:06;35.30;32.36;38.97;;
66463;Laerm;56827;52.178;4.500;2024-01-16T00:21:16;34.12;32.13;40.52;;
66463;Laerm;56827;52.178;4.500;2024-01-16T00:21:26;39.43;32.28;43.81;;
66463;Laerm;56827;52.178;4.500;2024-01-16T00:21:43;37.55;33.52;42.27;;
66463;Laerm;56827;52.178;4.500;2024-01-16T00:21:56;39.33;32.01;64.80;;
66463;Laerm;56827;52.178;4.500;2024-01-16T00:22:06;36.38;33.15;39.92;;
66463;Laerm;56827;52.178;4.500;2024-01-16T00:22:16;39.93;36.30;44.01;;
66463;Laerm;56827;52.178;4.500;2024-01-16T00:22:27;36.77;33.98;42.19;;
66463;Laerm;56827;52.178;4.500;2024-01-16T00:22:37;37.79;33.48;41.79;;
66463;Laerm;56827;52.178;4.500;2024-01-16T00:22:47;39.46;36.85;41.84;;
66463;Laerm;56827;52.178;4.500;2024-01-16T00:22:58;38.09;34.29;45.09;;
66463;Laerm;56827;52.178;4.500;2024-01-16T00:23:08;34.16;31.70;40.29;;
66463;Laerm;56827;52.178;4.500;2024-01-16T00:23:18;33.64;31.44;39.59;;
66463;Laerm;56827;52.178;4.500;2024-01-16T00:23:28;34.85;32.47;39.98;;
66463;Laerm;56827;52.178;4.500;2024-01-16T00:23:41;35.60;33.28;42.75;;
66463;Laerm;56827;52.178;4.500;2024-01-16T00:23:52;35.31;32.54;40.55;;
66463;Laerm;56827;52.178;4.500;2024-01-16T00:24:02;35.49;32.61;40.12;;
66463;Laerm;56827;52.178;4.500;2024-01-16T00:24:13;41.73;35.40;44.89;;
66463;Laerm;56827;52.178;4.500;2024-01-16T01:46:39;32.42;29.87;45.13;;
66463;Laerm;56827;52.178;4.500;2024-01-16T01:46:50;31.87;29.73;38.40;;
66463;Laerm;56827;52.178;4.500;2024-01-16T01:47:00;32.39;30.02;39.04;;
66463;Laerm;56827;52.178;4.500;2024-01-16T01:47:11;32.25;30.31;39.67;;
66463;Laerm;56827;52.178;4.500;2024-01-16T01:47:21;33.05;30.58;44.69;;
66463;Laerm;56827;52.178;4.500;2024-01-16T01:47:31;32.53;30.14;39.03;;
66463;Laerm;56827;52.178;4.500;2024-01-16T01:47:42;32.57;30.64;39.18;;
66463;Laerm;56827;52.178;4.500;2024-01-16T01:47:53;32.61;30.61;41.20;;
66463;Laerm;56827;52.178;4.500;2024-01-16T01:48:03;32.27;30.07;39.32;;
66463;Laerm;56827;52.178;4.500;2024-01-16T01:48:17;34.78;29.89;48.18;;
66463;Laerm;56827;52.178;4.500;2024-01-16T01:48:27;32.21;29.76;39.07;;
66463;Laerm;56827;52.178;4.500;2024-01-16T01:48:37;33.00;29.86;42.08;;
66463;Laerm;56827;52.178;4.500;2024-01-16T01:48:49;37.46;33.05;43.24;;
66463;Laerm;56827;52.178;4.500;2024-01-16T01:49:00;34.37;32.05;39.94;;
66463;Laerm;56827;52.178;4.500;2024-01-16T01:49:11;40.74;32.02;53.48;;
66463;Laerm;56827;52.178;4.500;2024-01-16T01:49:22;38.66;32.02;54.71;;
66463;Laerm;56827;52.178;4.500;2024-01-16T01:49:33;33.87;30.50;39.48;;
66463;Laerm;56827;52.178;4.500;2024-01-16T01:49:43;32.90;30.50;42.41;;
66463;Laerm;56827;52.178;4.500;2024-01-16T01:49:53;32.95;30.84;39.81;;
66463;Laerm;56827;52.178;4.500;2024-01-16T01:50:05;32.90;30.63;38.45;;
66463;Laerm;56827;52.178;4.500;2024-01-16T01:50:16;33.15;30.45;38.90;;
66463;Laerm;56827;52.178;4.500;2024-01-16T01:50:26;32.76;30.80;39.76;;
66463;Laerm;56827;52.178;4.500;2024-01-16T01:50:37;33.32;30.69;38.88;;
66463;Laerm;56827;52.178;4.500;2024-01-16T01:50:47;33.36;30.46;45.29;;
66463;Laerm;56827;52.178;4.500;2024-01-16T01:50:58;32.54;29.75;41.53;;
66463;Laerm;56827;52.178;4.500;2024-01-16T01:51:09;32.86;30.75;39.06;;
66463;Laerm;56827;52.178;4.500;2024-01-16T01:51:20;32.45;30.31;39.49;;
66463;Laerm;56827;52.178;4.500;2024-01-16T01:51:30;32.22;29.85;38.70;;
66463;Laerm;56827;52.178;4.500;2024-01-16T01:51:41;32.26;30.08;41.99;;
66463;Laerm;56827;52.178;4.500;2024-01-16T01:51:52;32.36;29.70;39.20;;
66463;Laerm;56827;52.178;4.500;2024-01-16T01:52:03;32.74;30.58;40.47;;
66463;Laerm;56827;52.178;4.500;2024-01-16T01:52:14;33.41;30.96;39.41;;
66463;Laerm;56827;52.178;4.500;2024-01-16T01:52:24;41.86;33.57;51.49;;
66463;Laerm;56827;52.178;4.500;2024-01-16T01:52:35;42.08;35.28;47.76;;
66463;Laerm;56827;52.178;4.500;2024-01-16T01:52:46;40.48;35.12;47.18;;
66463;Laerm;56827;52.178;4.500;2024-01-16T01:52:56;39.47;33.84;47.28;;
66463;Laerm;56827;52.178;4.500;2024-01-16T01:53:07;38.47;33.67;43.69;;
66463;Laerm;56827;52.178;4.500;2024-01-16T01:53:17;37.59;32.63;42.42;;
66463;Laerm;56827;52.178;4.500;2024-01-16T01:53:27;35.79;31.90;43.47;;
66463;Laerm;56827;52.178;4.500;2024-01-16T01:53:39;34.22;30.95;39.57;;
66463;Laerm;56827;52.178;4.500;2024-01-16T01:53:49;33.99;30.81;39.31;;
66463;Laerm;56827;52.178;4.500;2024-01-16T01:54:01;33.53;30.96;46.92;;
66463;Laerm;56827;52.178;4.500;2024-01-16T01:54:12;34.61;32.27;39.83;;
66463;Laerm;56827;52.178;4.500;2024-01-16T01:54:23;33.70;31.49;42.97;;
66463;Laerm;56827;52.178;4.500;2024-01-16T01:54:35;33.90;31.00;44.71;;
66463;Laerm;56827;52.178;4.500;2024-01-16T01:54:46;33.73;31.26;40.46;;
66463;Laerm;56827;52.178;4.500;2024-01-16T01:54:56;32.45;30.80;37.42;;
66463;Laerm;56827;52.178;4.500;2024-01-16T01:55:10;33.81;31.60;39.66;;
66463;Laerm;56827;52.178;4.500;2024-01-16T01:55:21;34.19;31.33;49.69;;
66463;Laerm;56827;52.178;4.500;2024-01-16T01:55:32;34.13;31.55;41.84;;
66463;Laerm;56827;52.178;4.500;2024-01-16T01:55:42;33.39;31.59;39.18;;
66463;Laerm;56827;52.178;4.500;2024-01-16T01:55:52;34.20;32.12;38.85;;
66463;Laerm;56827;52.178;4.500;2024-01-16T01:56:04;33.56;31.40;38.87;;
66463;Laerm;56827;52.178;4.500;2024-01-16T01:56:17;35.48;31.96;45.02;;
66463;Laerm;56827;52.178;4.500;2024-01-16T01:56:27;34.23;31.84;40.84;;
66463;Laerm;56827;52.178;4.500;2024-01-16T01:56:37;34.04;32.02;39.52;;
66463;Laerm;56827;52.178;4.500;2024-01-16T01:56:48;34.01;31.84;39.64;;
66463;Laerm;56827;52.178;4.500;2024-01-16T01:56:59;32.27;30.07;38.14;;
66463;Laerm;56827;52.178;4.500;2024-01-16T01:57:09;34.40;30.28;39.88;;
66463;Laerm;56827;52.178;4.500;2024-01-16T01:57:20;34.95;32.73;40.21;;
66463;Laerm;56827;52.178;4.500;2024-01-16T01:57:30;35.23;32.49;47.31;;
66463;Laerm;56827;52.178;4.500;2024-01-16T01:57:41;33.28;30.84;38.36;;
66463;Laerm;56827;52.178;4.500;2024-01-16T01:57:52;33.84;31.42;39.51;;
66463;Laerm;56827;52.178;4.500;2024-01-16T01:58:03;35.00;31.16;44.95;;
66463;Laerm;56827;52.178;4.500;2024-01-16T01:58:14;33.19;30.74;38.99;;
66463;Laerm;56827;52.178;4.500;2024-01-16T01:58:24;33.40;30.96;39.75;;
66463;Laerm;56827;52.178;4.500;2024-01-16T01:58:34;32.83;30.79;38.48;;
66463;Laerm;56827;52.178;4.500;2024-01-16T01:58:47;32.72;30.56;40.17;;
66463;Laerm;56827;52.178;4.500;2024-01-16T01:58:57;32.38;30.30;39.19;;
66463;Laerm;56827;52.178;4.500;2024-01-16T01:59:11;32.92;30.44;39.46;;
66463;Laerm;56827;52.178;4.500;2024-01-16T01:59:23;32.70;30.96;39.41;;
66463;Laerm;56827;52.178;4.500;2024-01-16T01:59:34;33.18;31.00;39.31;;
66463;Laerm;56827;52.178;4.500;2024-01-16T01:59:44;33.43;31.62;41.23;;
66463;Laerm;56827;52.178;4.500;2024-01-16T01:59:55;33.30;30.95;39.35;;
66463;Laerm;56827;52.178;4.500;2024-01-16T02:00:06;32.54;30.38;41.60;;
66463;Laerm;56827;52.178;4.500;2024-01-16T02:00:16;32.87;30.45;39.13;;
66463;Laerm;56827;52.178;4.500;2024-01-16T02:00:28;34.04;30.45;40.38;;
66463;Laerm;56827;52.178;4.500;2024-01-16T02:00:39;34.50;32.37;43.64;;
66463;Laerm;56827;52.178;4.500;2024-01-16T02:00:49;35.27;32.02;39.92;;
66463;Laerm;56827;52.178;4.500;2024-01-16T02:01:00;33.85;30.10;40.11;;
66463;Laerm;56827;52.178;4.500;2024-01-16T02:01:11;34.73;31.17;47.30;;
66463;Laerm;56827;52.178;4.500;2024-01-16T02:01:21;36.58;31.80;48.52;;
66463;Laerm;56827;52.178;4.500;2024-01-16T02:01:32;34.07;31.60;43.02;;
66463;Laerm;56827;52.178;4.500;2024-01-16T02:01:47;33.38;31.35;38.24;;
66463;Laerm;56827;52.178;4.500;2024-01-16T02:01:58;33.93;31.45;40.42;;
66463;Laerm;56827;52.178;4.500;2024-01-16T02:02:09;33.17;31.07;39.16;;
66463;Laerm;56827;52.178;4.500;2024-01-16T02:02:20;33.65;31.15;39.54;;
66463;Laerm;56827;52.178;4.500;2024-01-16T02:02:31;33.54;31.50;38.88;;
66463;Laerm;56827;52.178;4.500;2024-01-16T02:02:42;35.20;32.14;45.87;;
66463;Laerm;56827;52.178;4.500;2024-01-16T02:02:52;36.14;33.65;39.81;;
66463;Laerm;56827;52.178;4.500;2024-01-16T02:03:02;37.10;33.85;41.53;;
66463;Laerm;56827;52.178;4.500;2024-01-16T02:03:13;38.98;35.67;45.13;;
66463;Laerm;56827;52.178;4.500;2024-01-16T02:03:23;35.15;32.46;39.64;;
66463;Laerm;56827;52.178;4.500;2024-01-16T02:03:39;34.52;31.83;41.04;;
66463;Laerm;56827;52.178;4.500;2024-01-16T02:03:51;37.85;33.93;41.95;;
66463;Laerm;56827;52.178;4.500;2024-01-16T02:04:02;37.86;31.95;45.65;;
66463;Laerm;56827;52.178;4.500;2024-01-16T02:04:16;34.99;31.61;46.09;;
66463;Laerm;56827;52.178;4.500;2024-01-16T02:04:28;34.20;31.68;38.63;;
66463;Laerm;56827;52.178;4.500;2024-01-16T02:04:39;33.27;31.00;40.84;;
66463;Laerm;56827;52.178;4.500;2024-01-16T02:04:50;35.75;32.40;43.72;;
66463;Laerm;56827;52.178;4.500;2024-01-16T02:05:00;33.85;31.55;40.40;;
66463;Laerm;56827;52.178;4.500;2024-01-16T02:05:10;34.19;31.80;39.09;;
66463;Laerm;56827;52.178;4.500;2024-01-16T02:05:20;34.68;30.17;41.15;;
66463;Laerm;56827;52.178;4.500;2024-01-16T02:05:31;33.07;30.80;39.84;;
66463;Laerm;56827;52.178;4.500;2024-01-16T02:05:42;32.54;30.41;38.53;;
66463;Laerm;56827;52.178;4.500;2024-01-16T02:05:52;32.50;30.26;39.69;;
66463;Laerm;56827;52.178;4.500;2024-01-16T02:06:02;32.62;30.41;38.80;;
66463;Laerm;56827;52.178;4.500;2024-01-16T02:06:12;32.96;30.66;41.69;;
66463;Laerm;56827;52.178;4.500;2024-01-16T02:06:23;32.55;30.39;40.57;;
66463;Laerm;56827;52.178;4.500;2024-01-16T02:06:33;32.55;30.13;45.36;;
66463;Laerm;56827;52.178;4.500;2024-01-16T02:06:44;32.09;30.11;38.66;;
66463;Laerm;56827;52.178;4.500;2024-01-16T02:06:54;32.23;30.17;38.92;;
66463;Laerm;56827;52.178;4.500;2024-01-16T02:07:06;32.17;30.17;41.47;;
66463;Laerm;56827;52.178;4.500;2024-01-16T02:07:17;32.45;29.80;44.49;;
66463;Laerm;56827;52.178;4.500;2024-01-16T02:07:29;32.64;30.35;38.39;;
66463;Laerm;56827;52.178;4.500;2024-01-16T02:07:41;32.59;30.69;39.02;;
66463;Laerm;56827;52.178;4.500;2024-01-16T02:07:51;32.50;30.41;39.69;;
66463;Laerm;56827;52.178;4.500;2024-01-16T02:08:02;32.52;30.28;39.27;;
66463;Laerm;56827;52.178;4.500;2024-01-16T02:08:12;32.25;30.45;37.68;;
66463;Laerm;56827;52.178;4.500;2024-01-16T02:08:22;32.80;30.54;44.66;;
66463;Laerm;56827;52.178;4.500;2024-01-16T02:08:33;32.06;29.62;39.11;;
66463;Laerm;56827;52.178;4.500;2024-01-16T02:08:44;32.27;30.29;38.25;;
66463;Laerm;56827;52.178;4.500;2024-01-16T02:08:54;32.10;30.20;38.97;;
66463;Laerm;56827;52.178;4.500;2024-01-16T02:09:05;32.56;30.53;38.06;;
66463;Laerm;56827;52.178;4.500;2024-01-16T02:09:17;32.28;30.11;40.87;;
66463;Laerm;56827;52.178;4.500;2024-01-16T02:09:27;32.09;29.76;41.01;;
66463;Laerm;56827;52.178;4.500;2024-01-16T02:09:37;31.89;30.08;39.48;;
66463;Laerm;56827;52.178;4.500;2024-01-16T02:09:48;31.91;29.77;37.99;;
66463;Laerm;56827;52.178;4.500;2024-01-16T02:09:59;31.89;29.83;38.93;;
66463;Laerm;56827;52.178;4.500;2024-01-16T02:10:10;32.34;29.76;45.29;;
66463;Laerm;56827;52.178;4.500;2024-01-16T02:10:20;31.93;29.88;40.98;;
66463;Laerm;56827;52.178;4.500;2024-01-16T02:10:31;31.86;29.73;42.10;;
66463;Laerm;56827;52.178;4.500;2024-01-16T02:10:41;32.84;30.46;40.07;;
66463;Laerm;56827;52.178;4.500;2024-01-16T02:10:52;33.27;30.69;40.16;;
66463;Laerm;56827;52.178;4.500;2024-01-16T02:11:03;32.53;30.16;38.30;;
66463;Laerm;56827;52.178;4.500;2024-01-16T02:11:13;32.55;30.51;39.27;;
66463;Laerm;56827;52.178;4.500;2024-01-16T02:11:24;32.54;30.37;39.56;;
66463;Laerm;56827;52.178;4.500;2024-01-16T02:11:34;32.96;31.11;38.18;;
66463;Laerm;56827;52.178;4.500;2024-01-16T02:11:44;32.73;29.80;42.47;;
66463;Laerm;56827;52.178;4.500;2024-01-16T02:11:55;32.73;30.57;38.96;;
66463;Laerm;56827;52.178;4.500;2024-01-16T02:12:05;33.20;30.57;39.17;;
66463;Laerm;56827;52.178;4.500;2024-01-16T02:12:15;33.42;30.70;39.40;;
66463;Laerm;56827;52.178;4.500;2024-01-16T02:12:26;33.05;30.22;38.77;;
66463;Laerm;56827;52.178;4.500;2024-01-16T02:12:36;32.65;30.53;40.73;;
66463;Laerm;56827;52.178;4.500;2024-01-16T02:12:46;33.30;30.78;39.39;;
66463;Laerm;56827;52.178;4.500;2024-01-16T02:12:57;32.51;30.00;38.78;;
66463;Laerm;56827;52.178;4.500;2024-01-16T02:13:07;33.06;29.93;44.56;;
66463;Laerm;56827;52.178;4.500;2024-01-16T02:13:18;32.70;30.25;38.77;;
66463;Laerm;56827;52.178;4.500;2024-01-16T02:13:31;32.12;29.80;38.71;;
66463;Laerm;56827;52.178;4.500;2024-01-16T02:13:41;32.22;29.94;44.80;;
66463;Laerm;56827;52.178;4.500;2024-01-16T02:13:52;34.32;30.85;47.81;;
66463;Laerm;56827;52.178;4.500;2024-01-16T02:14:02;33.46;30.70;39.69;;
66463;Laerm;56827;52.178;4.500;2024-01-16T02:14:12;32.43;30.59;38.39;;
66463;Laerm;56827;52.178;4.500;2024-01-16T02:14:22;32.52;30.78;39.42;;
66463;Laerm;56827;52.178;4.500;2024-01-16T02:14:33;32.74;30.62;38.85;;
66463;Laerm;56827;52.178;4.500;2024-01-16T02:14:43;32.57;30.59;38.33;;
66463;Laerm;56827;52.178;4.500;2024-01-16T02:14:53;32.15;30.00;40.40;;
66463;Laerm;56827;52.178;4.500;2024-01-16T02:15:04;32.06;29.74;38.52;;
66463;Laerm;56827;52.178;4.500;2024-01-16T02:15:15;32.15;28.92;38.37;;
66463;Laerm;56827;52.178;4.500;2024-01-16T02:15:25;31.89;29.96;37.66;;
66463;Laerm;56827;52.178;4.500;2024-01-16T02:15:35;32.11;30.06;39.98;;
66463;Laerm;56827;52.178;4.500;2024-01-16T02:15:45;31.95;30.19;38.78;;
66463;Laerm;56827;52.178;4.500;2024-01-16T02:15:55;31.93;29.93;38.45;;
66463;Laerm;56827;52.178;4.500;2024-01-16T02:16:06;32.01;30.00;39.01;;
66463;Laerm;56827;52.178;4.500;2024-01-16T02:16:26;32.22;29.64;39.45;;
66463;Laerm;56827;52.178;4.500;2024-01-16T02:16:40;32.07;29.92;38.17;;
66463;Laerm;56827;52.178;4.500;2024-01-16T02:16:51;32.99;30.29;39.15;;
66463;Laerm;56827;52.178;4.500;2024-01-16T02:17:01;33.89;30.46;42.59;;
66463;Laerm;56827;52.178;4.500;2024-01-16T02:17:12;32.34;30.11;38.57;;
66463;Laerm;56827;52.178;4.500;2024-01-16T02:17:22;32.25;30.13;39.16;;
66463;Laerm;56827;52.178;4.500;2024-01-16T02:17:32;32.48;30.26;39.14;;
66463;Laerm;56827;52.178;4.500;2024-01-16T02:17:42;32.57;30.29;38.91;;
66463;Laerm;56827;52.178;4.500;2024-01-16T02:17:53;32.15;30.19;38.25;;
66463;Laerm;56827;52.178;4.500;2024-01-16T02:18:03;32.75;30.49;45.46;;
66463;Laerm;56827;52.178;4.500;2024-01-16T02:18:13;32.28;30.26;38.20;;
66463;Laerm;56827;52.178;4.500;2024-01-16T02:18:23;32.68;30.58;39.63;;
66463;Laerm;56827;52.178;4.500;2024-01-16T02:18:34;32.74;30.57;39.30;;
66463;Laerm;56827;52.178;4.500;2024-01-16T02:18:44;32.81;30.58;39.56;;
66463;Laerm;56827;52.178;4.500;2024-01-16T02:18:54;32.88;30.63;39.21;;
66463;Laerm;56827;52.178;4.500;2024-01-16T02:19:05;33.30;30.46;44.65;;
66463;Laerm;56827;52.178;4.500;2024-01-16T02:19:16;32.45;30.83;38.11;;
66463;Laerm;56827;52.178;4.500;2024-01-16T02:19:26;34.54;30.45;45.21;;
66463;Laerm;56827;52.178;4.500;2024-01-16T02:19:36;32.48;30.34;38.72;;
66463;Laerm;56827;52.178;4.500;2024-01-16T02:19:46;32.62;30.01;38.44;;
66463;Laerm;56827;52.178;4.500;2024-01-16T02:19:57;32.28;30.33;38.23;;
66463;Laerm;56827;52.178;4.500;2024-01-16T02:20:07;32.24;30.27;39.39;;
66463;Laerm;56827;52.178;4.500;2024-01-16T02:20:17;32.24;30.35;38.88;;
66463;Laerm;56827;52.178;4.500;2024-01-16T02:20:28;35.23;30.29;49.88;;
66463;Laerm;56827;52.178;4.500;2024-01-16T02:20:38;32.42;30.54;38.31;;
66463;Laerm;56827;52.178;4.500;2024-01-16T02:20:48;32.52;30.34;39.19;;
66463;Laerm;56827;52.178;4.500;2024-01-16T02:21:01;32.08;30.19;37.86;;
66463;Laerm;56827;52.178;4.500;2024-01-16T02:21:22;32.60;30.06;43.14;;
66463;Laerm;56827;52.178;4.500;2024-01-16T02:21:43;32.04;29.97;38.78;;
66463;Laerm;56827;52.178;4.500;2024-01-16T02:21:58;32.75;30.54;40.42;;
66463;Laerm;56827;52.178;4.500;2024-01-16T02:22:09;32.35;30.23;38.68;;
66463;Laerm;56827;52.178;4.500;2024-01-16T02:22:22;33.54;30.88;41.05;;
66463;Laerm;56827;52.178;4.500;2024-01-16T02:22:35;32.54;30.06;39.70;;
66463;Laerm;56827;52.178;4.500;2024-01-16T02:22:46;32.37;29.60;38.85;;
66463;Laerm;56827;52.178;4.500;2024-01-16T02:22:57;32.43;30.63;39.21;;
66463;Laerm;56827;52.178;4.500;2024-01-16T02:23:10;32.84;30.82;39.75;;
66463;Laerm;56827;52.178;4.500;2024-01-16T02:23:28;32.77;30.46;39.65;;
66463;Laerm;56827;52.178;4.500;2024-01-16T02:23:39;33.24;30.76;38.95;;
66463;Laerm;56827;52.178;4.500;2024-01-16T02:23:49;33.46;31.16;41.48;;
66463;Laerm;56827;52.178;4.500;2024-01-16T02:23:59;33.08;30.85;39.72;;
66463;Laerm;56827;52.178;4.500;2024-01-16T02:24:12;33.51;30.87;44.44;;
66463;Laerm;56827;52.178;4.500;2024-01-16T02:24:23;33.35;30.65;39.32;;
66463;Laerm;56827;52.178;4.500;2024-01-16T02:24:33;34.68;31.78;39.57;;
66463;Laerm;56827;52.178;4.500;2024-01-16T02:24:44;35.16;32.26;40.19;;
66463;Laerm;56827;52.178;4.500;2024-01-16T02:24:54;36.25;32.37;44.62;;
66463;Laerm;56827;52.178;4.500;2024-01-16T02:25:04;35.48;32.62;39.94;;
66463;Laerm;56827;52.178;4.500;2024-01-16T02:25:15;35.61;32.95;40.17;;
66463;Laerm;56827;52.178;4.500;2024-01-16T02:25:25;37.51;34.15;41.62;;
66463;Laerm;56827;52.178;4.500;2024-01-16T02:25:36;39.38;35.08;42.57;;
66463;Laerm;56827;52.178;4.500;2024-01-16T02:25:46;35.73;33.82;39.66;;
66463;Laerm;56827;52.178;4.500;2024-01-16T02:25:57;33.62;31.26;39.01;;
66463;Laerm;56827;52.178;4.500;2024-01-16T02:26:07;34.27;30.87;39.28;;
66463;Laerm;56827;52.178;4.500;2024-01-16T02:26:18;34.43;31.48;39.79;;
66463;Laerm;56827;52.178;4.500;2024-01-16T02:26:28;33.65;31.19;39.33;;
66463;Laerm;56827;52.178;4.500;2024-01-16T02:26:40;33.16;30.73;39.02;;
66463;Laerm;56827;52.178;4.500;2024-01-16T02:26:51;33.01;29.94;41.72;;
66463;Laerm;56827;52.178;4.500;2024-01-16T02:27:01;33.20;31.13;38.50;;
66463;Laerm;56827;52.178;4.500;2024-01-16T02:27:11;32.84;30.80;39.52;;
66463;Laerm;56827;52.178;4.500;2024-01-16T02:27:22;32.46;30.32;37.40;;
66463;Laerm;56827;52.178;4.500;2024-01-16T02:27:32;32.44;30.22;39.11;;
66463;Laerm;56827;52.178;4.500;2024-01-16T02:27:42;32.12;30.24;38.51;;
66463;Laerm;56827;52.178;4.500;2024-01-16T02:27:52;32.64;30.71;38.70;;
66463;Laerm;56827;52.178;4.500;2024-01-16T02:28:03;33.15;31.15;39.56;;
66463;Laerm;56827;52.178;4.500;2024-01-16T02:28:13;33.45;30.96;38.74;;
66463;Laerm;56827;52.178;4.500;2024-01-16T02:28:23;41.46;33.30;46.05;;
66463;Laerm;56827;52.178;4.500;2024-01-16T02:28:33;39.54;35.40;44.28;;
66463;Laerm;56827;52.178;4.500;2024-01-16T02:28:44;34.78;32.22;40.14;;
66463;Laerm;56827;52.178;4.500;2024-01-16T02:28:54;33.65;30.83;39.59;;
66463;Laerm;56827;52.178;4.500;2024-01-16T02:29:04;33.42;30.51;39.81;;
66463;Laerm;56827;52.178;4.500;2024-01-16T02:29:14;33.41;31.40;39.39;;
66463;Laerm;56827;52.178;4.500;2024-01-16T02:29:26;32.71;30.61;39.63;;
66463;Laerm;56827;52.178;4.500;2024-01-16T02:29:40;34.83;31.63;45.38;;
66463;Laerm;56827;52.178;4.500;2024-01-16T02:29:50;33.20;30.75;38.86;;
66463;Laerm;56827;52.178;4.500;2024-01-16T02:30:00;33.03;31.11;38.95;;
66463;Laerm;56827;52.178;4.500;2024-01-16T02:30:11;32.90;30.35;42.89;;
66463;Laerm;56827;52.178;4.500;2024-01-16T02:30:21;32.52;30.63;39.07;;
66463;Laerm;56827;52.178;4.500;2024-01-16T02:30:31;33.41;30.34;40.22;;
66463;Laerm;56827;52.178;4.500;2024-01-16T02:30:42;32.74;30.91;39.68;;
66463;Laerm;56827;52.178;4.500;2024-01-16T02:30:52;32.38;30.66;38.94;;
66463;Laerm;56827;52.178;4.500;2024-01-16T02:31:02;32.02;30.25;39.10;;
66463;Laerm;56827;52.178;4.500;2024-01-16T02:31:12;32.34;30.20;39.57;;
66463;Laerm;56827;52.178;4.500;2024-01-16T02:31:23;32.90;30.84;39.23;;
66463;Laerm;56827;52.178;4.500;2024-01-16T02:31:33;32.85;30.56;39.16;;
66463;Laerm;56827;52.178;4.500;2024-01-16T02:31:43;32.34;30.23;40.00;;
66463;Laerm;56827;52.178;4.500;2024-01-16T02:31:54;32.72;30.10;39.37;;
66463;Laerm;56827;52.178;4.500;2024-01-16T02:32:04;33.17;31.14;39.96;;
66463;Laerm;56827;52.178;4.500;2024-01-16T02:32:15;32.96;30.62;39.26;;
66463;Laerm;56827;52.178;4.500;2024-01-16T02:32:25;32.80;30.61;39.68;;
66463;Laerm;56827;52.178;4.500;2024-01-16T02:32:36;33.05;30.45;44.42;;
66463;Laerm;56827;52.178;4.500;2024-01-16T02:32:46;33.65;31.49;40.06;;
66463;Laerm;56827;52.178;4.500;2024-01-16T02:32:56;33.56;31.73;39.92;;
66463;Laerm;56827;52.178;4.500;2024-01-16T02:33:06;33.78;31.29;40.58;;
66463;Laerm;56827;52.178;4.500;2024-01-16T02:33:17;34.06;30.71;40.95;;
66463;Laerm;56827;52.178;4.500;2024-01-16T02:33:28;33.04;30.89;39.28;;
66463;Laerm;56827;52.178;4.500;2024-01-16T02:33:38;33.40;31.33;41.02;;
66463;Laerm;56827;52.178;4.500;2024-01-16T02:33:48;32.97;30.80;40.12;;
66463;Laerm;56827;52.178;4.500;2024-01-16T02:33:58;34.44;31.83;40.48;;
66463;Laerm;56827;52.178;4.500;2024-01-16T02:34:09;34.36;31.01;40.37;;
66463;Laerm;56827;52.178;4.500;2024-01-16T02:34:21;33.38;30.99;40.16;;
66463;Laerm;56827;52.178;4.500;2024-01-16T02:34:31;34.23;31.10;40.87;;
66463;Laerm;56827;52.178;4.500;2024-01-16T02:34:42;34.63;30.89;40.73;;
66463;Laerm;56827;52.178;4.500;2024-01-16T02:34:53;34.31;30.72;40.62;;
66463;Laerm;56827;52.178;4.500;2024-01-16T02:35:03;34.18;31.13;40.68;;
66463;Laerm;56827;52.178;4.500;2024-01-16T02:35:15;34.61;30.94;40.73;;
66463;Laerm;56827;52.178;4.500;2024-01-16T02:35:27;34.24;30.42;40.34;;
66463;Laerm;56827;52.178;4.500;2024-01-16T02:35:37;34.22;30.59;40.74;;
66463;Laerm;56827;52.178;4.500;2024-01-16T02:35:47;34.37;30.83;40.35;;
66463;Laerm;56827;52.178;4.500;2024-01-16T02:35:58;34.05;30.31;40.20;;
66463;Laerm;56827;52.178;4.500;2024-01-16T02:36:09;33.84;30.49;40.51;;
66463;Laerm;56827;52.178;4.500;2024-01-16T02:36:19;33.74;30.53;40.31;;
66463;Laerm;56827;52.178;4.500;2024-01-16T02:36:29;33.82;30.35;40.56;;
66463;Laerm;56827;52.178;4.500;2024-01-16T02:36:39;34.39;31.50;39.99;;
66463;Laerm;56827;52.178;4.500;2024-01-16T02:36:49;33.47;30.55;40.15;;
66463;Laerm;56827;52.178;4.500;2024-01-16T02:37:01;33.75;30.63;40.40;;
66463;Laerm;56827;52.178;4.500;2024-01-16T02:37:11;33.45;30.35;40.65;;
66463;Laerm;56827;52.178;4.500;2024-01-16T02:37:21;33.46;30.26;40.21;;